Tuckerman, AR (72473)

11:06 AM CDT on August 30, 2015 (GMT -0500)
Newport | | Change Station
CLOSE
Current Station
Airport
Location: Newport,
Elevation: 240 ft
Nearby Weather Stations
Active Advisory: Flood Warning

Elev 240 ft 35.64 °N, 91.17 °W | Updated 10 minutes ago

Partly Cloudy
Partly Cloudy
83 °F
Feels Like 88 °F
N
4
Wind Variable Wind from South

Today
High -- | Low -- °F
--% Chance of Precip.
Yesterday
High -- | Low -- °F
Precip. -- in
6:35 AM 7:35 PM
Full, 99% visible
Pressure 30.06 in
Visibility 10.0 miles
Clouds Clear
Heat Index 88 °F
Dew Point 71 °F
Humidity 67%
Rainfall 0.21 in
Snow Depth Not available.
UV 8 out of 12
Pollen 9.30 out of 12
Air Quality Not available.
Flu Activity Not available.
METAR KM19 301556Z AUTO 18003KT 10SM CLR 28/22 A3007 RMK AO2 T02830216 SLP179
Pressure 30.06 in
Visibility 10.0 miles
Clouds Clear
Heat Index 88 °F
Dew Point 71 °F
Humidity 67%
Rainfall 0.21 in
Snow Depth Not available.
UV 8 out of 12
Pollen 9.30 out of 12
Air Quality Not available.
Flu Activity Not available.
METAR KM19 301556Z AUTO 18003KT 10SM CLR 28/22 A3007 RMK AO2 T02830216 SLP179

10-Day Weather Forecast

×

Almanac

Astronomy

Aug. 30, 2015 Rise Set
Actual Time
Civil Twilight
Nautical Twilight
Astronomical Twilight
Moon
Length of Visible Light
Length of Day
Tomorrow will be .
, % of the Moon is Illuminated

Today's Extremes

State Highs State Lows

Community

WunderPhotos

Upload Photos

1,851,002 photos uploaded!

WunderBlogs® & News

Nearby

Air Quality

  Air Quality AQ Index Pollutant
Not available.

Snow Depth

Station Depth Elevation

Earthquake Activity

City Distance Mag. Time & Date
Minimum magnitude displayed is 2.5.

Coastal Water Temperatures

Place Temperature

Stations

Nearby Weather Stations

Station Location Temp. Windchill Dew Point Humidity Wind Precip. Elev Updated Type
                   
Flood Warning
Statement as of 10:45 AM CDT on August 30, 2015

The Flood Warning continues for
the Cache River near Patterson.
* Until further notice... or until the warning is cancelled.
* At 10:00 am Sunday the stage was 8.2 feet.
* Minor flooding is occurring and minor flooding is forecast.
* Flood stage is 8.0 feet.
* Forecast... the river will remain just above flood stage through the
end of the week.
* Impacts at 8.0 feet... low swampy Timberland along the river begins
to flood. Flood gates should be closed and equipment moved out of
the low grounds along the river and tributaries.




             Fld observed forecast 7 am
location stg stg day time Mon Tue Wed Thu Fri

Cache River
Patterson 8 8.2 sun 10 am 8.2 8.2 8.2 8.2 8.2




Lat... Lon 3510 9133 3522 9128 3539 9123 3538 9113
3521 9117 3508 9122




224